الصفحة الرئيسية
METAR-TAF:

METAR-TAF

مطار :

Alice Springs, أستراليا

دائرة عرض: 23-48S, خط طول: 133-53E, ارتفاع: 545 متر

مراقبة الطقس الحالي

تاريخ ووقت الإصدار 48 دقيقة قبل الساعة 00:00UTC
ريح 13 عقدة من الشمال الشرقي
درجة الحرارة 34°درجة مئوية
الرطوبة 14%
ضغط 1010 hPa
الرؤية 10 كم أو أكثر
الغيوم لا تقل 1500 م ولا وجود لمزنة ركامية السحاب الأسود

METAR: YBAS 170000Z 05013KT CAVOK 34/03 Q1010

زمن: 10:18 (00:48 UTC)

توقعات

تاريخ ووقت الإصدار 1ساعة و 14 دقيقة قبل الساعة 23:34UTC
التوقعات صالحة من17 الساعة 00 UTC إلى 17 الساعة 24 UTC
ريح 11 عقدة من الشرق/الشمال الشرقي
الرؤية 10 كم أو أكثر
الغيوم لا تقل 1500 م ولا وجود لمزنة ركامية السحاب الأسود
من 17 الساعة 0900 UTC
ريح 10 عقدة من الشرق
الرؤية 10 كم أو أكثر
الغيوم لا تقل 1500 م ولا وجود لمزنة ركامية السحاب الأسود

TAF: YBAS 162334Z 1700/1724 06011KT CAVOK FM170900 10010KT CAVOK

أرصاد الطقس والتوقعات من أكثر من 4000 مطار (تقارير الطقس للمطار METAR والتنبؤ بالطقس بالمطارTAF).

المحطات المتاحة هي النقط الصفراء والحمراء على الخريطة.

حرك المؤشر فوق النقطة لمعرفة اسم المحطة.

ثم انقر لمعرفة أرصاد وتوقعات الطقس.

لتغيير الخارطة: اضغط على الأزرار الخضراء مع رمز الصليب الأسود للتكبير. على الزر الأخضر مع شرطة للتصغير، أو على الأسهم الخضراء للخرائط المجاورة.


METAR-TAF: